Time;durP1;ratioP1;P1;durP2;ratioP2;P2;SDS_P1;SDS_P2;PMS_P1;PMS_P2;Temp;Humidity;BMP_temperature;BMP_pressure;BME280_temperature;BME280_humidity;BME280_pressure;Samples;Min_cycle;Max_cycle;Signal;HPM_P1;HPM_P2
2023/05/14 00:00:31;;;;;;;2.23;2.13;;;;;;;;;;4992904;28;20200;-84
2023/05/14 00:03:00;;;;;;;6.70;6.07;;;;;;;;;;4996020;28;20243;-84
2023/05/14 00:05:28;;;;;;;8.10;4.97;;;;;;;;;;4995634;28;20225;-83
2023/05/14 00:07:58;;;;;;;5.60;4.53;;;;;;;;;;4996291;28;20209;-84
2023/05/14 00:10:27;;;;;;;4.27;3.10;;;;;;;;;;4996149;28;20303;-83
2023/05/14 00:12:55;;;;;;;3.50;3.20;;;;;;;;;;4995207;28;20247;-83
2023/05/14 00:15:24;;;;;;;4.07;3.67;;;;;;;;;;4996057;28;20203;-84
2023/05/14 00:17:52;;;;;;;5.97;4.57;;;;;;;;;;4996180;28;20292;-84
2023/05/14 00:20:20;;;;;;;23.10;7.10;;;;;;;;;;4995547;28;20209;-83
2023/05/14 00:22:49;;;;;;;7.27;6.53;;;;;;;;;;4995636;28;20255;-83
2023/05/14 00:25:19;;;;;;;8.13;4.30;;;;;;;;;;4995733;28;20232;-83
2023/05/14 00:27:47;;;;;;;7.97;5.33;;;;;;;;;;4995578;28;20259;-83
2023/05/14 00:30:16;;;;;;;5.70;4.87;;;;;;;;;;4995415;28;20240;-84
2023/05/14 00:32:44;;;;;;;5.83;3.50;;;;;;;;;;4995771;28;20205;-84
2023/05/14 00:35:12;;;;;;;3.13;2.90;;;;;;;;;;4995616;28;20203;-84
2023/05/14 00:37:41;;;;;;;0.73;0.73;;;;;;;;;;4995295;28;20232;-83
2023/05/14 00:40:11;;;;;;;4.83;3.03;;;;;;;;;;4995521;28;20259;-83
2023/05/14 00:42:41;;;;;;;4.03;2.90;;;;;;;;;;4995346;28;20200;-84
2023/05/14 00:45:10;;;;;;;3.73;3.47;;;;;;;;;;4994904;28;20268;-83
2023/05/14 00:47:39;;;;;;;2.30;2.13;;;;;;;;;;4995565;28;20295;-84
2023/05/14 00:50:08;;;;;;;5.33;4.83;;;;;;;;;;4995389;28;20267;-84
2023/05/14 00:52:36;;;;;;;2.13;2.00;;;;;;;;;;4994803;28;20300;-84
2023/05/14 00:55:06;;;;;;;4.83;4.43;;;;;;;;;;4994950;28;20231;-83
2023/05/14 00:57:35;;;;;;;7.83;4.27;;;;;;;;;;4995103;28;20205;-83
2023/05/14 01:00:05;;;;;;;3.87;2.40;;;;;;;;;;4995129;28;20231;-84
2023/05/14 01:02:33;;;;;;;1.67;1.27;;;;;;;;;;4994978;28;20236;-84
2023/05/14 01:05:02;;;;;;;3.73;3.43;;;;;;;;;;4994875;28;20212;-84
2023/05/14 01:07:38;;;;;;;2.60;2.43;;;;;;;;;;4994993;28;20239;-84
2023/05/14 01:10:09;;;;;;;3.20;3.00;;;;;;;;;;4994597;28;20232;-84
2023/05/14 01:12:39;;;;;;;8.00;3.47;;;;;;;;;;4993790;28;20243;-84
2023/05/14 01:15:11;;;;;;;5.33;4.10;;;;;;;;;;4994541;28;20200;-84
2023/05/14 01:17:42;;;;;;;6.27;4.37;;;;;;;;;;4994699;28;20263;-83
2023/05/14 01:20:11;;;;;;;14.10;3.60;;;;;;;;;;4994765;28;20259;-84
2023/05/14 01:22:41;;;;;;;2.30;2.13;;;;;;;;;;4994728;28;20226;-84
2023/05/14 01:25:10;;;;;;;4.90;3.57;;;;;;;;;;4994442;28;20228;-84
2023/05/14 01:27:41;;;;;;;8.03;6.47;;;;;;;;;;4994682;28;20275;-84
2023/05/14 01:30:14;;;;;;;4.90;3.93;;;;;;;;;;4994346;28;20197;-85
2023/05/14 01:32:45;;;;;;;3.23;2.93;;;;;;;;;;4994097;28;20211;-85
2023/05/14 01:35:14;;;;;;;3.57;3.17;;;;;;;;;;4994500;28;20228;-85
2023/05/14 01:37:44;;;;;;;5.33;3.47;;;;;;;;;;4994263;28;20200;-85
2023/05/14 01:40:14;;;;;;;3.60;3.30;;;;;;;;;;4993878;28;20231;-85
2023/05/14 01:42:43;;;;;;;5.33;3.07;;;;;;;;;;4994734;28;20283;-85
2023/05/14 01:45:12;;;;;;;4.83;4.00;;;;;;;;;;4994035;28;20216;-85
2023/05/14 01:47:40;;;;;;;3.37;3.17;;;;;;;;;;4993808;28;20200;-85
2023/05/14 01:50:09;;;;;;;4.33;2.90;;;;;;;;;;4994160;28;20208;-85
2023/05/14 01:52:37;;;;;;;6.67;6.07;;;;;;;;;;4994423;28;20307;-84
2023/05/14 01:55:07;;;;;;;4.27;3.87;;;;;;;;;;4993736;28;20259;-85
2023/05/14 01:57:36;;;;;;;4.33;4.03;;;;;;;;;;4993903;28;20231;-85
2023/05/14 02:00:05;;;;;;;0.70;0.70;;;;;;;;;;4994087;28;20291;-85
2023/05/14 02:02:33;;;;;;;4.90;4.20;;;;;;;;;;4993637;28;20197;-85
2023/05/14 02:05:01;;;;;;;9.13;5.07;;;;;;;;;;4993662;28;20236;-85
2023/05/14 02:07:33;;;;;;;9.03;5.57;;;;;;;;;;4993797;28;20196;-85
2023/05/14 02:10:01;;;;;;;6.50;5.67;;;;;;;;;;4993866;28;20220;-85
2023/05/14 02:12:31;;;;;;;2.93;2.83;;;;;;;;;;4993464;28;20267;-85
2023/05/14 02:15:00;;;;;;;5.43;3.53;;;;;;;;;;4994065;28;20291;-85
2023/05/14 02:17:28;;;;;;;9.93;6.60;;;;;;;;;;4993721;28;20211;-85
2023/05/14 02:19:57;;;;;;;10.23;6.33;;;;;;;;;;4993259;28;20264;-85
2023/05/14 02:22:25;;;;;;;9.40;7.00;;;;;;;;;;4993686;28;20270;-85
2023/05/14 02:24:54;;;;;;;6.73;4.37;;;;;;;;;;4992527;28;20192;-85
2023/05/14 02:27:22;;;;;;;6.37;5.10;;;;;;;;;;4993060;28;20325;-85
2023/05/14 02:29:52;;;;;;;18.97;8.90;;;;;;;;;;4993503;28;20208;-85
2023/05/14 02:32:20;;;;;;;6.47;5.27;;;;;;;;;;4993576;28;20208;-85
2023/05/14 02:34:49;;;;;;;9.27;8.17;;;;;;;;;;4993181;28;20212;-85
2023/05/14 02:37:17;;;;;;;12.33;8.23;;;;;;;;;;4993491;28;20282;-86
2023/05/14 02:39:45;;;;;;;17.70;9.70;;;;;;;;;;4993489;28;20200;-85
2023/05/14 02:42:14;;;;;;;8.00;7.20;;;;;;;;;;4993339;28;20239;-85
2023/05/14 02:44:42;;;;;;;8.67;6.50;;;;;;;;;;4993017;28;20230;-85
2023/05/14 02:47:12;;;;;;;9.40;4.10;;;;;;;;;;4993114;28;20275;-85
2023/05/14 02:49:40;;;;;;;8.03;7.23;;;;;;;;;;4993007;28;20204;-86
2023/05/14 02:52:09;;;;;;;5.50;4.97;;;;;;;;;;4992646;28;20303;-84
2023/05/14 02:54:37;;;;;;;4.10;3.23;;;;;;;;;;4993328;28;20303;-84
2023/05/14 02:57:06;;;;;;;10.10;6.60;;;;;;;;;;4993387;28;20207;-84
2023/05/14 02:59:35;;;;;;;9.80;7.13;;;;;;;;;;4993056;28;20204;-84
2023/05/14 03:02:06;;;;;;;11.20;7.50;;;;;;;;;;4993120;28;20204;-84
2023/05/14 03:04:36;;;;;;;7.43;5.20;;;;;;;;;;4992919;28;20205;-84
2023/05/14 03:07:05;;;;;;;7.70;7.00;;;;;;;;;;4992320;28;20254;-84
2023/05/14 03:09:33;;;;;;;6.77;4.30;;;;;;;;;;4992875;28;20204;-84
2023/05/14 03:12:05;;;;;;;7.47;6.67;;;;;;;;;;4992413;28;20236;-83
2023/05/14 03:14:34;;;;;;;6.83;5.63;;;;;;;;;;4992360;28;20196;-84
2023/05/14 03:17:02;;;;;;;6.10;4.43;;;;;;;;;;4992628;28;20263;-83
2023/05/14 03:19:31;;;;;;;8.87;8.07;;;;;;;;;;4993096;28;20231;-84
2023/05/14 03:22:01;;;;;;;12.90;8.37;;;;;;;;;;4992134;28;20208;-84
2023/05/14 03:24:30;;;;;;;11.50;7.63;;;;;;;;;;4992624;28;20247;-84
2023/05/14 03:26:58;;;;;;;5.73;5.33;;;;;;;;;;4992589;28;20326;-84
2023/05/14 03:29:27;;;;;;;9.07;5.83;;;;;;;;;;4992274;28;20200;-84
2023/05/14 03:31:55;;;;;;;10.47;7.97;;;;;;;;;;4992599;28;20351;-83
2023/05/14 03:34:24;;;;;;;11.33;8.23;;;;;;;;;;4992675;28;20204;-84
2023/05/14 03:36:52;;;;;;;4.23;3.20;;;;;;;;;;4995237;28;20208;-84
2023/05/14 03:39:22;;;;;;;8.40;2.57;;;;;;;;;;4996328;28;20227;-85
2023/05/14 03:41:50;;;;;;;2.27;2.20;;;;;;;;;;4996510;28;20251;-85
2023/05/14 03:44:19;;;;;;;6.53;3.30;;;;;;;;;;4996064;28;20251;-85
2023/05/14 03:46:47;;;;;;;13.33;8.80;;;;;;;;;;4996261;28;20248;-85
2023/05/14 03:49:16;;;;;;;14.17;10.03;;;;;;;;;;4996228;28;20204;-85
2023/05/14 03:51:44;;;;;;;3.10;2.90;;;;;;;;;;4996310;28;20232;-86
2023/05/14 03:54:12;;;;;;;5.67;2.93;;;;;;;;;;4995847;28;20200;-85
2023/05/14 03:56:42;;;;;;;15.07;9.73;;;;;;;;;;4996164;28;20295;-86
2023/05/14 03:59:10;;;;;;;3.23;2.97;;;;;;;;;;4996099;28;20208;-85
2023/05/14 04:01:39;;;;;;;10.27;7.70;;;;;;;;;;4995767;28;20302;-85
2023/05/14 04:04:07;;;;;;;8.20;5.90;;;;;;;;;;4996569;28;20200;-85
2023/05/14 04:06:36;;;;;;;10.83;7.23;;;;;;;;;;4995921;28;20231;-85
2023/05/14 04:09:04;;;;;;;2.97;2.70;;;;;;;;;;4995832;28;20227;-85
2023/05/14 04:11:33;;;;;;;11.10;7.23;;;;;;;;;;4995476;28;20290;-85
2023/05/14 04:14:03;;;;;;;6.60;5.97;;;;;;;;;;4996543;28;20303;-85
2023/05/14 04:16:31;;;;;;;11.47;7.70;;;;;;;;;;4995717;28;20196;-85
2023/05/14 04:19:02;;;;;;;9.30;6.87;;;;;;;;;;4995628;28;20204;-85
2023/05/14 04:21:31;;;;;;;8.93;6.33;;;;;;;;;;4995710;28;20208;-85
2023/05/14 04:23:59;;;;;;;9.03;6.53;;;;;;;;;;4996143;28;20212;-85
2023/05/14 04:26:28;;;;;;;16.23;10.93;;;;;;;;;;4995027;28;20196;-85
2023/05/14 04:28:57;;;;;;;6.53;5.80;;;;;;;;;;4995684;28;20237;-85
2023/05/14 04:31:26;;;;;;;14.47;12.40;;;;;;;;;;4995838;28;20208;-85
2023/05/14 04:33:55;;;;;;;6.70;6.13;;;;;;;;;;4995417;28;20207;-85
2023/05/14 04:36:23;;;;;;;9.53;7.93;;;;;;;;;;4995907;28;20232;-85
2023/05/14 04:38:52;;;;;;;15.70;11.83;;;;;;;;;;4995961;28;20210;-85
2023/05/14 04:41:22;;;;;;;12.17;9.20;;;;;;;;;;4995350;28;20303;-85
2023/05/14 04:43:51;;;;;;;11.90;8.23;;;;;;;;;;4995431;28;20323;-85
2023/05/14 04:46:19;;;;;;;9.33;6.20;;;;;;;;;;4995211;28;20196;-85
2023/05/14 04:49:00;;;;;;;9.87;6.33;;;;;;;;;;4994066;28;20256;-85
2023/05/14 04:51:29;;;;;;;12.03;8.83;;;;;;;;;;4995373;28;20204;-85
2023/05/14 04:53:57;;;;;;;12.40;9.63;;;;;;;;;;4995327;28;20200;-85
2023/05/14 04:56:25;;;;;;;8.57;6.30;;;;;;;;;;4995183;28;20251;-85
2023/05/14 04:58:54;;;;;;;9.73;8.40;;;;;;;;;;4994995;28;20201;-85
2023/05/14 05:01:23;;;;;;;11.53;7.77;;;;;;;;;;4995424;28;20238;-85
2023/05/14 05:03:53;;;;;;;13.60;8.60;;;;;;;;;;4995000;28;20196;-85
2023/05/14 05:06:22;;;;;;;8.10;7.13;;;;;;;;;;4994975;28;20200;-85
2023/05/14 05:08:50;;;;;;;8.63;6.17;;;;;;;;;;4994982;28;20220;-86
2023/05/14 05:11:20;;;;;;;10.83;7.60;;;;;;;;;;4995044;28;20326;-85
2023/05/14 05:13:48;;;;;;;7.20;4.90;;;;;;;;;;4994453;28;20255;-85
2023/05/14 05:16:17;;;;;;;10.43;6.57;;;;;;;;;;4994647;28;20231;-85
2023/05/14 05:18:45;;;;;;;6.27;5.67;;;;;;;;;;4994933;28;20211;-85
2023/05/14 05:21:15;;;;;;;14.07;6.00;;;;;;;;;;4994720;28;20208;-85
2023/05/14 05:23:44;;;;;;;8.60;7.90;;;;;;;;;;4994874;28;20228;-85
2023/05/14 05:26:12;;;;;;;8.97;7.63;;;;;;;;;;4994523;28;20211;-85
2023/05/14 05:28:41;;;;;;;11.97;8.53;;;;;;;;;;4994117;28;20257;-85
2023/05/14 05:31:09;;;;;;;10.57;8.30;;;;;;;;;;4994979;28;20232;-86
2023/05/14 05:33:38;;;;;;;11.80;9.43;;;;;;;;;;4994350;28;20208;-86
2023/05/14 05:36:06;;;;;;;9.77;6.77;;;;;;;;;;4994295;28;20201;-84
2023/05/14 05:38:36;;;;;;;8.13;6.60;;;;;;;;;;4994195;28;20231;-83
2023/05/14 05:41:05;;;;;;;8.90;7.67;;;;;;;;;;4994426;28;20226;-84
2023/05/14 05:43:33;;;;;;;4.70;4.27;;;;;;;;;;4994043;28;20202;-84
2023/05/14 05:46:02;;;;;;;7.07;5.17;;;;;;;;;;4994030;28;20200;-84
2023/05/14 05:48:30;;;;;;;11.83;8.03;;;;;;;;;;4994052;28;20231;-84
2023/05/14 05:50:59;;;;;;;10.30;6.40;;;;;;;;;;4994070;28;20204;-84
2023/05/14 05:53:27;;;;;;;12.20;9.10;;;;;;;;;;4993543;28;20300;-84
2023/05/14 05:55:58;;;;;;;8.30;5.77;;;;;;;;;;5011051;28;20300;-84
2023/05/14 05:58:27;;;;;;;11.93;6.87;;;;;;;;;;5014502;28;20239;-84
2023/05/14 06:00:56;;;;;;;5.00;4.60;;;;;;;;;;5009634;28;20282;-84
2023/05/14 06:03:25;;;;;;;3.97;3.67;;;;;;;;;;5016274;28;20205;-83
2023/05/14 06:05:54;;;;;;;9.33;6.50;;;;;;;;;;5032566;28;20207;-84
2023/05/14 06:08:22;;;;;;;4.40;3.13;;;;;;;;;;5010755;28;20267;-81
2023/05/14 06:10:51;;;;;;;7.70;5.33;;;;;;;;;;5007236;28;20212;-85
2023/05/14 06:13:21;;;;;;;8.57;4.70;;;;;;;;;;5014882;28;20230;-85
2023/05/14 06:15:50;;;;;;;4.93;4.37;;;;;;;;;;5011404;28;20243;-85
2023/05/14 06:18:18;;;;;;;12.33;7.47;;;;;;;;;;5004877;28;20193;-85
2023/05/14 06:20:46;;;;;;;6.70;5.90;;;;;;;;;;5008627;28;20240;-85
2023/05/14 06:23:15;;;;;;;4.57;4.13;;;;;;;;;;5009252;28;20207;-85
2023/05/14 06:25:44;;;;;;;11.43;8.27;;;;;;;;;;5010027;28;20284;-85
2023/05/14 06:28:12;;;;;;;12.37;7.30;;;;;;;;;;5007887;28;20256;-84
2023/05/14 06:30:42;;;;;;;11.63;6.37;;;;;;;;;;5004329;28;20232;-85
2023/05/14 06:33:12;;;;;;;8.57;7.70;;;;;;;;;;5010971;28;20201;-86
2023/05/14 06:35:44;;;;;;;12.07;5.70;;;;;;;;;;5014765;28;20204;-86
2023/05/14 06:38:14;;;;;;;10.13;6.40;;;;;;;;;;5013229;28;20229;-86
2023/05/14 06:40:42;;;;;;;7.13;5.20;;;;;;;;;;5013436;28;20258;-86
2023/05/14 06:43:11;;;;;;;7.27;5.63;;;;;;;;;;5013020;28;20206;-86
2023/05/14 06:45:39;;;;;;;16.23;8.33;;;;;;;;;;5013279;28;20296;-86
2023/05/14 06:48:09;;;;;;;8.70;7.83;;;;;;;;;;5013515;28;20392;-86
2023/05/14 06:50:38;;;;;;;11.13;7.63;;;;;;;;;;5013727;28;20211;-86
2023/05/14 06:53:06;;;;;;;11.60;7.63;;;;;;;;;;5013673;28;20202;-86
2023/05/14 06:55:35;;;;;;;8.30;6.97;;;;;;;;;;5012926;28;20236;-86
2023/05/14 06:58:03;;;;;;;13.47;6.33;;;;;;;;;;5012424;28;20194;-86
2023/05/14 07:00:31;;;;;;;15.83;10.07;;;;;;;;;;5012964;28;20210;-86
2023/05/14 07:03:00;;;;;;;10.33;5.60;;;;;;;;;;5011176;28;20279;-86
2023/05/14 07:05:30;;;;;;;14.17;7.00;;;;;;;;;;5012489;28;20261;-86
2023/05/14 07:07:58;;;;;;;3.87;3.57;;;;;;;;;;5012495;28;20236;-86
2023/05/14 07:10:27;;;;;;;7.17;3.67;;;;;;;;;;5011925;28;20205;-86
2023/05/14 07:12:55;;;;;;;4.17;3.77;;;;;;;;;;5012007;28;20229;-86
2023/05/14 07:15:25;;;;;;;9.03;5.13;;;;;;;;;;5012631;28;20238;-86
2023/05/14 07:17:54;;;;;;;11.97;6.53;;;;;;;;;;5012263;28;20313;-86
2023/05/14 07:20:23;;;;;;;6.53;5.10;;;;;;;;;;5011767;28;20205;-86
2023/05/14 07:22:54;;;;;;;5.40;4.43;;;;;;;;;;5012396;28;20307;-86
2023/05/14 07:25:22;;;;;;;6.70;4.20;;;;;;;;;;5012298;28;20245;-86
2023/05/14 07:27:53;;;;;;;2.60;2.40;;;;;;;;;;5011858;28;20230;-85
2023/05/14 07:30:21;;;;;;;9.20;3.47;;;;;;;;;;5012520;28;20254;-86
2023/05/14 07:32:50;;;;;;;12.10;5.30;;;;;;;;;;5012319;28;20199;-86
2023/05/14 07:35:19;;;;;;;11.20;6.40;;;;;;;;;;5012399;28;20229;-86
2023/05/14 07:37:47;;;;;;;5.60;3.93;;;;;;;;;;5012418;28;20264;-86
2023/05/14 07:40:17;;;;;;;3.43;2.87;;;;;;;;;;5012273;28;20276;-86
2023/05/14 07:42:45;;;;;;;2.57;2.37;;;;;;;;;;5011907;28;20277;-86
2023/05/14 07:45:14;;;;;;;5.90;5.23;;;;;;;;;;5012153;28;20246;-86
2023/05/14 07:47:42;;;;;;;2.53;2.23;;;;;;;;;;5012477;28;20281;-86
2023/05/14 07:50:11;;;;;;;12.13;5.97;;;;;;;;;;5011807;28;20214;-86
2023/05/14 07:52:40;;;;;;;1.73;1.63;;;;;;;;;;5012288;28;20242;-86
2023/05/14 07:55:09;;;;;;;9.10;3.30;;;;;;;;;;5012018;28;20198;-86
2023/05/14 07:57:39;;;;;;;8.40;3.77;;;;;;;;;;5012053;28;20207;-86
2023/05/14 08:00:08;;;;;;;6.87;4.13;;;;;;;;;;5011488;28;20225;-86
2023/05/14 08:02:36;;;;;;;4.50;3.20;;;;;;;;;;5011880;28;20222;-86
2023/05/14 08:05:05;;;;;;;7.37;4.33;;;;;;;;;;5012336;28;20231;-86
2023/05/14 08:07:33;;;;;;;11.80;3.47;;;;;;;;;;5011566;28;20246;-86
2023/05/14 08:10:02;;;;;;;5.63;4.87;;;;;;;;;;5012154;28;20223;-86
2023/05/14 08:12:30;;;;;;;3.13;2.37;;;;;;;;;;5012114;28;20277;-86
2023/05/14 08:15:00;;;;;;;6.50;3.50;;;;;;;;;;5011549;28;20274;-86
2023/05/14 08:17:28;;;;;;;3.07;2.67;;;;;;;;;;5012050;28;20241;-86
2023/05/14 08:19:57;;;;;;;3.00;2.80;;;;;;;;;;5011829;28;20262;-86
2023/05/14 08:22:25;;;;;;;1.57;1.50;;;;;;;;;;5013201;28;20209;-86
2023/05/14 08:24:54;;;;;;;4.77;4.13;;;;;;;;;;5015615;28;20294;-86
2023/05/14 08:27:22;;;;;;;7.30;5.03;;;;;;;;;;5015622;28;20227;-86
2023/05/14 08:29:51;;;;;;;4.73;4.37;;;;;;;;;;5015110;28;20305;-86
2023/05/14 08:32:20;;;;;;;2.60;2.27;;;;;;;;;;5015478;28;20203;-86
2023/05/14 08:34:51;;;;;;;4.73;2.00;;;;;;;;;;5015546;28;20261;-86
2023/05/14 08:37:20;;;;;;;1.63;1.53;;;;;;;;;;5015412;28;20204;-85
2023/05/14 08:39:48;;;;;;;3.73;2.70;;;;;;;;;;5014734;28;20213;-87
2023/05/14 08:42:20;;;;;;;4.83;3.67;;;;;;;;;;5015543;28;20218;-86
2023/05/14 08:44:49;;;;;;;3.23;2.93;;;;;;;;;;5015345;28;20262;-86
2023/05/14 08:47:19;;;;;;;2.03;1.93;;;;;;;;;;5014710;28;20238;-86
2023/05/14 08:49:53;;;;;;;3.63;2.37;;;;;;;;;;5014815;28;20219;-86
2023/05/14 08:52:23;;;;;;;2.53;2.27;;;;;;;;;;5015465;28;20254;-86
2023/05/14 08:54:52;;;;;;;4.13;3.43;;;;;;;;;;5014744;28;20273;-86
2023/05/14 08:57:23;;;;;;;4.43;3.60;;;;;;;;;;5014963;28;20210;-86
2023/05/14 08:59:52;;;;;;;3.73;3.07;;;;;;;;;;5014854;28;20227;-86
2023/05/14 09:02:21;;;;;;;2.37;2.17;;;;;;;;;;5014475;28;20199;-86
2023/05/14 09:04:53;;;;;;;3.53;3.23;;;;;;;;;;5014884;28;20207;-86
2023/05/14 09:07:22;;;;;;;2.93;2.63;;;;;;;;;;5014841;28;20199;-86
2023/05/14 09:09:51;;;;;;;2.57;1.37;;;;;;;;;;5013957;28;20212;-86
2023/05/14 09:12:20;;;;;;;3.07;2.73;;;;;;;;;;5012516;28;20243;-86
2023/05/14 09:14:50;;;;;;;7.23;4.07;;;;;;;;;;5014495;28;20207;-86
2023/05/14 09:17:19;;;;;;;6.50;2.50;;;;;;;;;;5014397;28;20188;-86
2023/05/14 09:19:51;;;;;;;4.73;3.83;;;;;;;;;;5014251;28;20263;-86
2023/05/14 09:22:22;;;;;;;2.53;2.33;;;;;;;;;;5014216;28;20214;-87
2023/05/14 09:25:03;;;;;;;1.60;1.50;;;;;;;;;;5014166;28;20195;-86
2023/05/14 09:27:32;;;;;;;2.63;2.43;;;;;;;;;;5013689;28;20213;-86
2023/05/14 09:30:10;;;;;;;2.77;2.27;;;;;;;;;;5014495;28;20225;-86
2023/05/14 09:32:42;;;;;;;3.30;1.97;;;;;;;;;;5014145;28;20207;-86
2023/05/14 09:35:13;;;;;;;4.20;2.23;;;;;;;;;;5013103;28;20196;-86
2023/05/14 09:37:43;;;;;;;4.60;3.20;;;;;;;;;;5014341;28;20199;-86
2023/05/14 09:40:12;;;;;;;8.30;2.13;;;;;;;;;;5014076;28;20200;-86
2023/05/14 09:42:43;;;;;;;7.77;3.07;;;;;;;;;;5013309;28;20202;-86
2023/05/14 09:45:12;;;;;;;2.17;2.07;;;;;;;;;;5014387;28;20300;-87
2023/05/14 09:47:41;;;;;;;3.87;2.77;;;;;;;;;;5013794;28;20192;-86
2023/05/14 09:50:10;;;;;;;3.50;3.20;;;;;;;;;;5013320;28;20314;-86
2023/05/14 09:52:39;;;;;;;2.70;2.50;;;;;;;;;;5013909;28;20201;-86
2023/05/14 09:55:09;;;;;;;4.83;3.20;;;;;;;;;;5013949;28;20279;-86
2023/05/14 09:57:37;;;;;;;3.27;2.30;;;;;;;;;;5013345;28;20213;-86
2023/05/14 10:00:08;;;;;;;13.63;2.37;;;;;;;;;;5013669;28;20205;-86
2023/05/14 10:02:39;;;;;;;5.63;2.60;;;;;;;;;;5013425;28;20210;-86
2023/05/14 10:05:09;;;;;;;2.17;1.50;;;;;;;;;;5013312;28;20273;-86
2023/05/14 10:07:40;;;;;;;2.67;2.47;;;;;;;;;;5013427;28;20279;-86
2023/05/14 10:10:13;;;;;;;4.93;2.90;;;;;;;;;;5013541;28;20272;-86
2023/05/14 10:12:43;;;;;;;1.00;0.90;;;;;;;;;;5010992;28;20296;-86
2023/05/14 10:15:17;;;;;;;7.83;2.47;;;;;;;;;;5013665;28;20204;-86
2023/05/14 10:17:49;;;;;;;1.70;1.60;;;;;;;;;;5013836;28;20212;-86
2023/05/14 10:20:18;;;;;;;3.40;2.27;;;;;;;;;;5013143;28;20235;-86
2023/05/14 10:22:46;;;;;;;8.53;2.13;;;;;;;;;;5013153;28;20211;-86
2023/05/14 10:25:16;;;;;;;1.27;1.17;;;;;;;;;;5013797;28;20251;-86
2023/05/14 10:27:45;;;;;;;1.30;1.30;;;;;;;;;;5013149;28;20253;-86
2023/05/14 10:30:14;;;;;;;1.73;1.63;;;;;;;;;;5013050;28;20221;-86
2023/05/14 10:32:42;;;;;;;2.20;1.97;;;;;;;;;;5013076;28;20272;-86
2023/05/14 10:35:19;;;;;;;2.10;1.77;;;;;;;;;;5013023;28;20209;-86
2023/05/14 10:37:52;;;;;;;2.17;1.97;;;;;;;;;;5012703;28;20233;-86
2023/05/14 10:40:25;;;;;;;1.77;1.20;;;;;;;;;;5013275;28;20192;-86
2023/05/14 10:42:54;;;;;;;1.63;1.53;;;;;;;;;;5012976;28;20233;-86
2023/05/14 10:45:24;;;;;;;1.53;1.43;;;;;;;;;;5011928;28;20206;-86
2023/05/14 10:47:52;;;;;;;4.73;2.70;;;;;;;;;;5012671;28;20238;-86
2023/05/14 10:50:22;;;;;;;2.50;1.97;;;;;;;;;;5012834;28;20215;-86
2023/05/14 10:52:51;;;;;;;0.50;0.50;;;;;;;;;;5012341;28;20257;-86
2023/05/14 10:55:21;;;;;;;2.67;2.47;;;;;;;;;;5013142;28;20200;-86
2023/05/14 10:57:53;;;;;;;4.67;2.47;;;;;;;;;;5012468;28;20223;-86
2023/05/14 11:00:26;;;;;;;3.43;2.33;;;;;;;;;;5012423;28;20231;-86
2023/05/14 11:02:57;;;;;;;5.30;1.53;;;;;;;;;;5012150;28;20206;-86
2023/05/14 11:05:28;;;;;;;4.23;2.80;;;;;;;;;;5012297;28;20210;-86
2023/05/14 11:07:58;;;;;;;6.60;3.37;;;;;;;;;;5012574;28;20209;-86
2023/05/14 11:10:28;;;;;;;3.40;2.57;;;;;;;;;;5012537;28;20240;-87
2023/05/14 11:12:58;;;;;;;1.80;1.40;;;;;;;;;;5012678;28;20248;-86
2023/05/14 11:15:28;;;;;;;3.20;1.63;;;;;;;;;;5012251;28;20215;-86
2023/05/14 11:17:56;;;;;;;4.30;2.17;;;;;;;;;;5012364;28;20256;-86
2023/05/14 11:20:25;;;;;;;3.80;2.90;;;;;;;;;;5012442;28;20272;-86
2023/05/14 11:22:54;;;;;;;3.30;2.23;;;;;;;;;;5012415;28;20204;-85
2023/05/14 11:25:24;;;;;;;2.93;1.93;;;;;;;;;;5011784;28;20205;-86
2023/05/14 11:27:57;;;;;;;6.57;4.20;;;;;;;;;;5012490;28;20237;-86
2023/05/14 11:30:28;;;;;;;2.40;2.30;;;;;;;;;;5012314;28;20202;-86
2023/05/14 11:32:56;;;;;;;3.00;1.80;;;;;;;;;;5011639;28;20189;-86
2023/05/14 11:35:29;;;;;;;2.43;2.10;;;;;;;;;;5012403;28;20210;-87
2023/05/14 11:37:57;;;;;;;3.43;1.83;;;;;;;;;;5012150;28;20226;-86
2023/05/14 11:40:26;;;;;;;2.30;1.93;;;;;;;;;;5011833;28;20214;-86
2023/05/14 11:42:54;;;;;;;3.70;2.77;;;;;;;;;;5012267;28;20202;-86
2023/05/14 11:45:28;;;;;;;1.83;1.73;;;;;;;;;;5012160;28;20255;-86
2023/05/14 11:47:57;;;;;;;5.43;2.60;;;;;;;;;;5012006;28;20213;-86
2023/05/14 11:50:25;;;;;;;2.30;1.87;;;;;;;;;;5012130;28;20298;-86
2023/05/14 11:52:57;;;;;;;1.90;1.80;;;;;;;;;;5012201;28;20219;-86
2023/05/14 11:55:25;;;;;;;1.67;1.57;;;;;;;;;;5011965;28;20214;-86
2023/05/14 11:57:54;;;;;;;4.03;3.37;;;;;;;;;;5014452;28;20207;-86
2023/05/14 12:00:23;;;;;;;2.60;2.27;;;;;;;;;;5016021;28;20350;-86
2023/05/14 12:02:55;;;;;;;2.23;1.97;;;;;;;;;;5016019;28;20202;-86
2023/05/14 12:05:23;;;;;;;3.47;3.27;;;;;;;;;;5015391;28;20201;-86
2023/05/14 12:07:52;;;;;;;3.83;3.00;;;;;;;;;;5016189;28;20211;-86
2023/05/14 12:10:20;;;;;;;4.80;4.03;;;;;;;;;;5015679;28;20204;-86
2023/05/14 12:12:49;;;;;;;2.73;2.10;;;;;;;;;;5015327;28;20240;-86
2023/05/14 12:15:20;;;;;;;6.47;5.13;;;;;;;;;;5015962;28;20213;-86
2023/05/14 12:17:52;;;;;;;4.77;2.33;;;;;;;;;;5015723;28;20215;-86
2023/05/14 12:20:22;;;;;;;6.00;4.53;;;;;;;;;;5015005;28;20210;-86
2023/05/14 12:22:51;;;;;;;3.53;3.17;;;;;;;;;;5015559;28;20193;-86
2023/05/14 12:25:19;;;;;;;4.70;3.73;;;;;;;;;;5015332;28;20212;-86
2023/05/14 12:27:48;;;;;;;5.53;3.57;;;;;;;;;;5015042;28;20221;-86
2023/05/14 12:30:16;;;;;;;5.33;3.47;;;;;;;;;;5015134;28;20197;-86
2023/05/14 12:32:51;;;;;;;4.40;4.00;;;;;;;;;;5014900;28;20304;-86
2023/05/14 12:35:22;;;;;;;8.00;2.30;;;;;;;;;;5015359;28;20255;-86
2023/05/14 12:37:51;;;;;;;3.50;2.53;;;;;;;;;;5015329;28;20190;-86
2023/05/14 12:40:19;;;;;;;6.93;4.43;;;;;;;;;;5015006;28;20273;-86
2023/05/14 12:42:48;;;;;;;1.57;1.47;;;;;;;;;;5015334;28;20238;-86
2023/05/14 12:45:16;;;;;;;4.40;3.40;;;;;;;;;;5014988;28;20210;-86
2023/05/14 12:47:45;;;;;;;3.47;2.93;;;;;;;;;;5014890;28;20211;-86
2023/05/14 12:50:13;;;;;;;2.00;1.90;;;;;;;;;;5015125;28;20200;-86
2023/05/14 12:52:43;;;;;;;4.10;2.10;;;;;;;;;;5015377;28;20251;-86
2023/05/14 12:55:12;;;;;;;2.60;2.40;;;;;;;;;;5015287;28;20216;-86
2023/05/14 12:57:40;;;;;;;6.20;2.77;;;;;;;;;;5014950;28;20202;-86
2023/05/14 13:00:10;;;;;;;4.10;3.70;;;;;;;;;;5014506;28;20286;-86
2023/05/14 13:02:48;;;;;;;6.60;3.27;;;;;;;;;;5014850;28;20207;-86
2023/05/14 13:05:17;;;;;;;2.00;1.90;;;;;;;;;;5014901;28;20201;-86
2023/05/14 13:07:47;;;;;;;4.33;2.13;;;;;;;;;;5015013;28;20211;-86
2023/05/14 13:10:17;;;;;;;5.23;2.50;;;;;;;;;;5013975;28;20198;-86
2023/05/14 13:12:45;;;;;;;4.93;2.30;;;;;;;;;;5012901;28;20291;-86
2023/05/14 13:15:14;;;;;;;3.83;2.53;;;;;;;;;;5014685;28;20193;-86
2023/05/14 13:17:43;;;;;;;2.57;1.87;;;;;;;;;;5014941;28;20230;-86
2023/05/14 13:20:11;;;;;;;2.33;2.13;;;;;;;;;;5015159;28;20222;-86
2023/05/14 13:22:40;;;;;;;1.43;1.33;;;;;;;;;;5014509;28;20216;-85
2023/05/14 13:25:10;;;;;;;1.77;1.57;;;;;;;;;;5014882;28;20214;-86
2023/05/14 13:27:39;;;;;;;3.57;2.50;;;;;;;;;;5014349;28;20275;-85
2023/05/14 13:30:10;;;;;;;5.33;2.13;;;;;;;;;;5014272;28;20231;-85
2023/05/14 13:32:39;;;;;;;4.33;2.70;;;;;;;;;;5014052;28;20239;-85
2023/05/14 13:35:09;;;;;;;2.40;2.20;;;;;;;;;;5014615;28;20279;-85
2023/05/14 13:37:38;;;;;;;3.03;2.20;;;;;;;;;;5014514;28;20207;-86
2023/05/14 13:40:07;;;;;;;2.70;2.20;;;;;;;;;;5013713;28;20206;-84
2023/05/14 13:42:38;;;;;;;3.57;2.63;;;;;;;;;;5013857;28;20209;-85
2023/05/14 13:45:07;;;;;;;5.10;2.83;;;;;;;;;;5014238;28;20233;-84
2023/05/14 13:47:35;;;;;;;2.43;1.87;;;;;;;;;;5013983;28;20261;-84
2023/05/14 13:50:04;;;;;;;2.80;2.60;;;;;;;;;;5014099;28;20210;-82
2023/05/14 13:52:33;;;;;;;10.37;3.63;;;;;;;;;;5014039;28;20222;-85
2023/05/14 13:55:01;;;;;;;4.07;2.20;;;;;;;;;;5013485;28;20196;-86
2023/05/14 13:57:29;;;;;;;5.03;3.57;;;;;;;;;;5014155;28;20304;-85
2023/05/14 13:59:59;;;;;;;2.00;1.80;;;;;;;;;;5013794;28;20258;-86
2023/05/14 14:02:27;;;;;;;3.97;2.70;;;;;;;;;;5013387;28;20205;-85
2023/05/14 14:04:56;;;;;;;1.83;1.73;;;;;;;;;;5013982;28;20203;-86
2023/05/14 14:07:24;;;;;;;10.97;3.30;;;;;;;;;;5013499;28;20219;-86
2023/05/14 14:09:53;;;;;;;4.73;3.07;;;;;;;;;;5013270;28;20203;-86
2023/05/14 14:12:21;;;;;;;3.83;2.87;;;;;;;;;;5011110;28;20261;-86
2023/05/14 14:14:50;;;;;;;2.70;2.30;;;;;;;;;;5013712;28;20300;-85
2023/05/14 14:17:20;;;;;;;3.33;3.03;;;;;;;;;;5013239;28;20205;-86
2023/05/14 14:19:48;;;;;;;3.17;2.83;;;;;;;;;;5013692;28;20308;-88
2023/05/14 14:22:17;;;;;;;7.10;3.23;;;;;;;;;;5013478;28;20297;-86
2023/05/14 14:24:45;;;;;;;5.00;2.40;;;;;;;;;;5013256;28;20201;-86
2023/05/14 14:27:14;;;;;;;2.90;2.27;;;;;;;;;;5012996;28;20231;-86
2023/05/14 14:29:42;;;;;;;9.00;3.37;;;;;;;;;;5013150;28;20217;-86
2023/05/14 14:32:11;;;;;;;3.23;2.93;;;;;;;;;;5013204;28;20200;-85
2023/05/14 14:34:41;;;;;;;7.13;3.63;;;;;;;;;;5012401;28;20204;-85
2023/05/14 14:37:09;;;;;;;4.90;2.53;;;;;;;;;;5012974;28;20321;-85
2023/05/14 14:39:37;;;;;;;7.60;1.93;;;;;;;;;;5013187;28;20257;-86
2023/05/14 14:42:07;;;;;;;3.43;2.63;;;;;;;;;;5012854;28;20254;-85
2023/05/14 14:44:35;;;;;;;10.03;3.53;;;;;;;;;;5012770;28;20237;-85
2023/05/14 14:47:04;;;;;;;4.90;2.63;;;;;;;;;;5013102;28;20204;-86
2023/05/14 14:49:33;;;;;;;5.50;3.07;;;;;;;;;;5012801;28;20367;-85
2023/05/14 14:52:05;;;;;;;3.63;3.33;;;;;;;;;;5012964;28;20196;-86